Huntingtown, MD (20639)

10:37 PM EDT on August 30, 2015 (GMT -0400)
APRSWXNET | | Change Station
CLOSE
Current Station
Personal Weather Station
Location: Sunderland, MD
Elevation: 121 ft
Nearby Weather Stations

Elev 121 ft 38.64 °N, 76.62 °W | Updated 27 minutes ago

Scattered Clouds
Scattered Clouds
76 °F
Feels Like 77 °F
N
1
Wind Variable Wind from SSE
Gusts 5.0 mph

Today
High -- | Low -- °F
--% Chance of Precip.
Yesterday
High -- | Low -- °F
Precip. -- in
6:33 AM 7:39 PM
Full, 97% visible
Pressure 30.11 in
Visibility 10.0 miles
Clouds Scattered Clouds 14000 ft
Heat Index 77 °F
Dew Point 70 °F
Humidity 81%
Rainfall in
Snow Depth Not available.
UV 0 out of 12
Pollen 10.30 out of 12
Air Quality Not available.
Flu Activity Not available.
METAR KADW 310158Z AUTO 20009KT 10SM SCT140 26/18 A3009 RMK AO2 SLP194 T02600184
Pressure 30.11 in
Visibility 10.0 miles
Clouds Scattered Clouds 14000 ft
Heat Index 77 °F
Dew Point 70 °F
Humidity 81%
Rainfall in
Snow Depth Not available.
UV 0 out of 12
Pollen 10.30 out of 12
Air Quality Not available.
Flu Activity Not available.
METAR KADW 310158Z AUTO 20009KT 10SM SCT140 26/18 A3009 RMK AO2 SLP194 T02600184

10-Day Weather Forecast

×

Almanac

Astronomy

Aug. 30, 2015 Rise Set
Actual Time
Civil Twilight
Nautical Twilight
Astronomical Twilight
Moon
Length of Visible Light
Length of Day
Tomorrow will be .
, % of the Moon is Illuminated

Today's Extremes

State Highs State Lows

Community

WunderPhotos

Upload Photos

1,851,164 photos uploaded!

WunderBlogs® & News

Nearby

Air Quality

  Air Quality AQ Index Pollutant
Not available.

Snow Depth

Station Depth Elevation

Earthquake Activity

City Distance Mag. Time & Date
Minimum magnitude displayed is 2.5.

Coastal Water Temperatures

Place Temperature

Stations

Nearby Weather Stations

Station Location Temp. Windchill Dew Point Humidity Wind Precip. Elev Updated Type